Cape Dorset, Canada
Current Conditions -  °F | °C
As of 2:00 PM on Friday 21 Nov 2014 (Local Time) from CYTE Reporting Station
Light Snow Light Snow  
Wind Chill: -5°   Ceiling: 2800
Heat Index: 12°   Visibility: 8mi
Dew Point:   Wind: 17mph
Humidity: 79%   Direction: 250°WSW
Pressure: 29.33"   Gusts: NA
Location:  64.23°N, 76.54°W
Report Text: CYTE 211900Z 25015KT 8SM -SN DRSN FEW018 OVC028 M11/M14 A2933 RMK SC2SC6 SLP937
Loading
Personal Weather Stations






























Interactive Weather Map New forecast layout! Learn more

10-Day Weather Forecast

Advertisements
Track Severe Weather on mobile